This is the latest recevied weather packets stored in our database for station/object DG0PX-12. If no packets are shown the sender has not sent any weather packets the latest 10 day(s).
| Time | Temp. | Humidity | Pressure | Rain* | Wind** | Luminosity | Snow |
|---|---|---|---|---|---|---|---|
| 1788110997 | 32.78° C | 37% | 948.1 hPa | - | - | - | - |
| 1788110097 | 33.89° C | 30% | 948.4 hPa | - | - | - | - |
| 1788109197 | 33.33° C | 31% | 948.3 hPa | - | - | - | - |
| 1788108297 | 35° C | 27% | 948.5 hPa | - | - | - | - |
| 1788107397 | 33.89° C | 28% | 948.4 hPa | - | - | - | - |
| 1788106497 | 32.78° C | 30% | 948.3 hPa | - | - | - | - |
| 1788105597 | 35° C | 27% | 948.6 hPa | - | - | - | - |
| 1788104697 | 35.56° C | 25% | 948.8 hPa | - | - | - | - |
| 1788103797 | 32.22° C | 29% | 948.6 hPa | - | - | - | - |
| 1788102897 | 33.89° C | 27% | 948.7 hPa | - | - | - | - |
| 1788101997 | 37.78° C | 22% | 949 hPa | - | - | - | - |
| 1788101096 | 37.22° C | 23% | 949 hPa | - | - | - | - |
| 1788100196 | 35.56° C | 24% | 949 hPa | - | - | - | - |
| 1788099296 | 35.56° C | 25% | 948.9 hPa | - | - | - | - |
| 1788098396 | 36.67° C | 24% | 949 hPa | - | - | - | - |
| 1788097496 | 36.67° C | 24% | 949.2 hPa | - | - | - | - |
| 1788096596 | 37.78° C | 23% | 949.3 hPa | - | - | - | - |
| 1788095696 | 36.11° C | 25% | 949.4 hPa | - | - | - | - |
| 1788094796 | 35.56° C | 25% | 949.5 hPa | - | - | - | - |
| 1788093896 | 36.67° C | 23% | 949.7 hPa | - | - | - | - |
| 1788092996 | 34.44° C | 25% | 949.8 hPa | - | - | - | - |
| 1788092095 | 33.89° C | 25% | 949.9 hPa | - | - | - | - |
| 1788091195 | 32.22° C | 27% | 949.9 hPa | - | - | - | - |
| 1788090295 | 35° C | 24% | 950.2 hPa | - | - | - | - |
| 1788089395 | 38.33° C | 21% | 950.5 hPa | - | - | - | - |
* Rain since midnight (hover to see other rain measurements)
** Current wind speed in m/s (hover to see current wind gust speed)